• Join FlightAware (Why Join?)
  • Login
  • US Flag 
03:28AM EST


 

Airport Tracker/Info


-or-


 

Live Flight TrackerFlight Track Log ✈ SWA378 ✈ 16-May-2013 ✈ KBWI - KALB

Flight Track Log - Related Links

Times and Time Zones

All times are in EDT time to prevent confusion due to time zone crossing. See the SWA378 flight status page for this flight to view local times or setup timezone preferences in your user account.

Time Position Orientation Groundspeed Altitude Reporting Facility
EDT Latitude Longitude Course Direction KTS MPH feet Rate Location/Type
10:25PM 39.1106 -76.6911 284° West 185 213 4,500  Level Washington Center
10:26PM 39.0864 -76.5997 109° East 168 193 8,300 3,180 Climbing Washington Center
10:27PM 39.1039 -76.4850 79° East 223 257 10,900 2,640 Climbing Washington Center
10:28PM 39.1236 -76.3489 79° East 305 351 13,600 2,940 Climbing Washington Center
10:29PM 39.1431 -76.2017 80° East 365 420 16,800 2,640 Climbing Washington Center
10:30PM 39.1622 -76.6111 284° West  Level FlightAware Approximate
10:30PM 39.1711 -76.0333 78° East 399 459 19,000  Level Washington Center
10:31PM 39.1986 -75.8808 77° East 426 490 21,000 2,220 Climbing Washington Center
10:32PM 39.2800 -75.7658 48° Northeast 420 483 23,500 2,340 Climbing Washington Center
10:33PM 39.3697 -75.6533 44° Northeast 429 494 25,700 2,280 Climbing Washington Center
10:34PM 39.4594 -75.5350 45° Northeast 441 507 28,100 1,620 Climbing Washington Center
10:35PM 39.5467 -75.4219 45° Northeast 447 514 29,000 420 Climbing Washington Center
10:36PM 39.6361 -75.3058 45° Northeast 447 514 29,000  Level Washington Center
10:37PM 39.7356 -75.1683 47° Northeast 463 533 29,000  Level New York Center
10:38PM 39.8194 -75.0439 49° Northeast 463 533 29,000  Level New York Center
10:39PM 39.9050 -74.9247 47° Northeast 458 527 29,000  Level New York Center
10:40PM 40.0053 -74.7950 45° Northeast 465 535 29,000  Level New York Center
10:41PM 40.1097 -74.7253 27° Northeast 440 506 29,000  Level New York Center
10:42PM 40.2300 -74.6831 15° North 423 487 29,000  Level New York Center
10:43PM 40.3461 -74.6406 16° North 428 493 29,000  Level New York Center
10:44PM 40.4619 -74.6036 14° North 428 493 29,000  Level New York Center
10:46PM 40.6681 -74.5278 16° North 441 507 29,000  Level Boston Center
10:47PM 40.7853 -74.4878 14° North 436 502 29,000  Level Boston Center
10:48PM 40.9028 -74.4503 14° North 436 502 29,000 -180 Level Boston Center
10:49PM 41.0347 -74.4075 14° North 436 502 28,700 -720 Descending Boston Center
10:50PM 41.1417 -74.3722 14° North 436 502 27,600 -1,080 Descending Boston Center
10:51PM 41.2633 -74.3261 16° North 429 494 26,600 -840 Descending Boston Center
10:52PM 41.3786 -74.2881 14° North 423 487 26,000 -300 Descending Boston Center
10:53PM 41.4856 -74.2522 14° North 418 481 26,000 -840 Level Boston Center
10:54PM 41.5883 -74.2164 15° North 413 475 24,400 -1,920 Descending Boston Center
10:55PM 41.6950 -74.1778 15° North 413 475 22,200 -2,220 Descending Boston Center
10:56PM 41.8019 -74.1444 13° North 391 450 20,000 -2,220 Descending Boston Center
10:57PM 41.8983 -74.1081 16° North 370 426 17,800 -2,280 Descending Boston Center
10:58PM 41.9947 -74.0742 15° North 353 406 15,600 -2,280 Descending Boston Center
10:59PM 42.0681 -74.0508 13° North 352 405 13,800 -2,340 Descending Boston Center
11:00PM 42.1603 -74.0114 18° North 346 398 11,400 -1,680 Descending Boston Center
11:01PM 42.2419 -73.9742 19° North 308 354 10,500 -1,500 Descending Boston Center
11:02PM 42.3194 -73.9450 16° North 284 327 8,400 -2,160 Descending Boston Center
11:03PM 42.4033 -73.9078 18° North 288 331 6,200 -1,500 Descending Boston Center
11:04PM 42.4808 -73.8786 16° North 272 313 5,300 -1,200 Descending Boston Center
11:05PM 42.5458 -73.8492 18° North 270 311 3,800 -1,320 Descending Boston Center
11:06PM 42.6025 -73.8278 16° North 186 214 2,800 -900 Descending Boston Center
11:07PM 42.6444 -73.8061 21° North 166 191 2,000 -780 Descending Boston Center
11:08PM 42.6839 -73.8042 North 128 147 1,300 -780 Descending Boston Center
11:09PM 42.7236 -73.8081 356° North 131 151 500 -840 Descending Boston Center